sensor_id;sensor_type;location;lat;lon;timestamp;pressure;altitude;pressure_sealevel;temperature;humidity
16525;BME280;8375;33.594;-117.718;2022-10-16T00:01:29;99995.31;;;20.50;65.20
16525;BME280;8375;33.594;-117.718;2022-10-16T00:03:59;99999.22;;;20.54;65.19
16525;BME280;8375;33.594;-117.718;2022-10-16T00:06:29;99999.03;;;20.56;65.64
16525;BME280;8375;33.594;-117.718;2022-10-16T00:08:58;99995.41;;;20.57;64.85
16525;BME280;8375;33.594;-117.718;2022-10-16T00:11:29;100001.06;;;20.54;64.38
16525;BME280;8375;33.594;-117.718;2022-10-16T00:14:01;100012.53;;;20.46;64.23
16525;BME280;8375;33.594;-117.718;2022-10-16T00:16:30;100009.88;;;20.46;64.76
16525;BME280;8375;33.594;-117.718;2022-10-16T00:18:59;100015.53;;;20.43;65.96
16525;BME280;8375;33.594;-117.718;2022-10-16T00:21:28;100015.28;;;20.37;66.12
16525;BME280;8375;33.594;-117.718;2022-10-16T00:23:59;100012.22;;;20.34;65.90
16525;BME280;8375;33.594;-117.718;2022-10-16T00:26:31;100008.31;;;20.30;66.81
16525;BME280;8375;33.594;-117.718;2022-10-16T00:29:00;99994.50;;;20.28;66.72
16525;BME280;8375;33.594;-117.718;2022-10-16T00:31:29;100017.16;;;20.22;65.64
16525;BME280;8375;33.594;-117.718;2022-10-16T00:33:58;100040.78;;;20.15;66.35
16525;BME280;8375;33.594;-117.718;2022-10-16T00:36:27;100063.06;;;20.13;65.93
16525;BME280;8375;33.594;-117.718;2022-10-16T00:38:58;100083.22;;;20.05;66.03
16525;BME280;8375;33.594;-117.718;2022-10-16T00:41:31;100079.69;;;19.98;65.59
16525;BME280;8375;33.594;-117.718;2022-10-16T00:44:01;100078.63;;;19.92;67.57
16525;BME280;8375;33.594;-117.718;2022-10-16T00:46:35;100077.25;;;19.97;68.52
16525;BME280;8375;33.594;-117.718;2022-10-16T00:49:07;100071.16;;;19.81;65.95
16525;BME280;8375;33.594;-117.718;2022-10-16T00:51:39;100077.78;;;19.77;65.83
16525;BME280;8375;33.594;-117.718;2022-10-16T00:54:11;100083.56;;;19.72;65.74
16525;BME280;8375;33.594;-117.718;2022-10-16T00:56:42;100096.72;;;19.72;65.05
16525;BME280;8375;33.594;-117.718;2022-10-16T00:59:15;100113.72;;;19.70;65.02
16525;BME280;8375;33.594;-117.718;2022-10-16T01:01:44;100112.16;;;19.60;65.64
16525;BME280;8375;33.594;-117.718;2022-10-16T01:04:13;100121.22;;;19.58;65.52
16525;BME280;8375;33.594;-117.718;2022-10-16T01:06:48;100121.94;;;19.52;65.85
16525;BME280;8375;33.594;-117.718;2022-10-16T01:09:22;100119.66;;;19.48;66.17
16525;BME280;8375;33.594;-117.718;2022-10-16T01:12:05;100140.28;;;19.45;66.01
16525;BME280;8375;33.594;-117.718;2022-10-16T01:14:42;100147.41;;;19.36;67.21
16525;BME280;8375;33.594;-117.718;2022-10-16T01:17:20;100143.16;;;19.35;67.03
16525;BME280;8375;33.594;-117.718;2022-10-16T01:20:07;100099.81;;;19.46;68.51
16525;BME280;8375;33.594;-117.718;2022-10-16T01:22:43;100097.25;;;19.38;73.36
16525;BME280;8375;33.594;-117.718;2022-10-16T01:25:22;100152.00;;;19.19;73.43
16525;BME280;8375;33.594;-117.718;2022-10-16T01:27:56;100188.59;;;19.05;75.29
16525;BME280;8375;33.594;-117.718;2022-10-16T01:30:26;100195.84;;;18.95;78.65
16525;BME280;8375;33.594;-117.718;2022-10-16T01:32:59;100217.94;;;18.86;82.17
16525;BME280;8375;33.594;-117.718;2022-10-16T01:35:34;100236.28;;;18.54;82.96
16525;BME280;8375;33.594;-117.718;2022-10-16T01:38:06;100237.13;;;18.46;86.27
16525;BME280;8375;33.594;-117.718;2022-10-16T01:40:39;100214.97;;;18.41;89.19
16525;BME280;8375;33.594;-117.718;2022-10-16T01:43:13;100098.34;;;18.42;93.61
16525;BME280;8375;33.594;-117.718;2022-10-16T01:45:44;100086.06;;;18.34;94.37
16525;BME280;8375;33.594;-117.718;2022-10-16T01:48:14;100080.81;;;18.02;92.50
16525;BME280;8375;33.594;-117.718;2022-10-16T01:50:52;100086.69;;;17.96;94.40
16525;BME280;8375;33.594;-117.718;2022-10-16T01:53:23;100124.97;;;17.82;96.65
16525;BME280;8375;33.594;-117.718;2022-10-16T01:55:54;100138.25;;;17.81;98.20
16525;BME280;8375;33.594;-117.718;2022-10-16T01:58:26;100138.59;;;17.78;100.00
16525;BME280;8375;33.594;-117.718;2022-10-16T02:00:57;100143.50;;;17.81;100.00
16525;BME280;8375;33.594;-117.718;2022-10-16T02:03:26;100137.09;;;17.83;100.00
16525;BME280;8375;33.594;-117.718;2022-10-16T02:05:56;100144.31;;;17.81;100.00
16525;BME280;8375;33.594;-117.718;2022-10-16T02:08:27;100131.84;;;17.83;100.00
16525;BME280;8375;33.594;-117.718;2022-10-16T02:10:58;100111.81;;;17.82;100.00
16525;BME280;8375;33.594;-117.718;2022-10-16T02:13:33;100111.19;;;17.80;100.00
16525;BME280;8375;33.594;-117.718;2022-10-16T02:16:03;100105.13;;;17.80;100.00
16525;BME280;8375;33.594;-117.718;2022-10-16T02:18:31;100109.53;;;17.79;100.00
16525;BME280;8375;33.594;-117.718;2022-10-16T02:21:02;100102.19;;;17.74;100.00
16525;BME280;8375;33.594;-117.718;2022-10-16T02:23:37;100092.81;;;17.72;100.00
16525;BME280;8375;33.594;-117.718;2022-10-16T02:26:14;100079.53;;;17.73;100.00
16525;BME280;8375;33.594;-117.718;2022-10-16T02:28:48;100104.31;;;17.71;100.00
16525;BME280;8375;33.594;-117.718;2022-10-16T02:31:24;100128.44;;;17.58;100.00
16525;BME280;8375;33.594;-117.718;2022-10-16T02:33:57;100121.22;;;17.60;100.00
16525;BME280;8375;33.594;-117.718;2022-10-16T02:36:27;100114.66;;;17.64;100.00
16525;BME280;8375;33.594;-117.718;2022-10-16T02:38:56;100103.69;;;17.52;100.00
16525;BME280;8375;33.594;-117.718;2022-10-16T02:41:25;100040.38;;;17.55;100.00
16525;BME280;8375;33.594;-117.718;2022-10-16T02:43:56;99941.50;;;17.48;100.00
16525;BME280;8375;33.594;-117.718;2022-10-16T02:46:24;99936.78;;;17.35;100.00
16525;BME280;8375;33.594;-117.718;2022-10-16T02:48:53;100020.28;;;17.23;99.88
16525;BME280;8375;33.594;-117.718;2022-10-16T02:51:21;100076.66;;;17.10;100.00
16525;BME280;8375;33.594;-117.718;2022-10-16T02:53:50;100103.31;;;16.89;100.00
16525;BME280;8375;33.594;-117.718;2022-10-16T02:56:19;100119.66;;;16.66;100.00
16525;BME280;8375;33.594;-117.718;2022-10-16T02:58:47;100125.19;;;16.55;100.00
16525;BME280;8375;33.594;-117.718;2022-10-16T03:01:17;100137.16;;;16.57;100.00
16525;BME280;8375;33.594;-117.718;2022-10-16T03:03:46;100134.41;;;16.67;100.00
16525;BME280;8375;33.594;-117.718;2022-10-16T03:06:14;100126.72;;;16.74;100.00
16525;BME280;8375;33.594;-117.718;2022-10-16T03:08:43;100132.00;;;16.82;100.00
16525;BME280;8375;33.594;-117.718;2022-10-16T03:11:11;100133.78;;;16.90;100.00
16525;BME280;8375;33.594;-117.718;2022-10-16T03:13:40;100134.13;;;16.87;100.00
16525;BME280;8375;33.594;-117.718;2022-10-16T03:16:08;100130.03;;;16.93;100.00
16525;BME280;8375;33.594;-117.718;2022-10-16T03:18:39;100116.75;;;16.94;100.00
16525;BME280;8375;33.594;-117.718;2022-10-16T03:21:08;100119.22;;;16.96;100.00
16525;BME280;8375;33.594;-117.718;2022-10-16T03:23:36;100118.41;;;16.95;100.00
16525;BME280;8375;33.594;-117.718;2022-10-16T03:26:05;100124.34;;;16.97;100.00
16525;BME280;8375;33.594;-117.718;2022-10-16T03:28:33;100126.44;;;16.94;100.00
16525;BME280;8375;33.594;-117.718;2022-10-16T03:31:02;100139.38;;;16.95;100.00
16525;BME280;8375;33.594;-117.718;2022-10-16T03:33:30;100145.44;;;16.96;100.00
16525;BME280;8375;33.594;-117.718;2022-10-16T03:36:01;100140.72;;;16.99;100.00
16525;BME280;8375;33.594;-117.718;2022-10-16T03:38:29;100138.63;;;17.03;100.00
16525;BME280;8375;33.594;-117.718;2022-10-16T03:40:58;100129.59;;;17.06;100.00
16525;BME280;8375;33.594;-117.718;2022-10-16T03:43:26;100116.16;;;17.09;100.00
16525;BME280;8375;33.594;-117.718;2022-10-16T03:45:55;100124.69;;;17.11;100.00
16525;BME280;8375;33.594;-117.718;2022-10-16T03:48:24;100129.25;;;17.09;100.00
16525;BME280;8375;33.594;-117.718;2022-10-16T03:50:52;100139.59;;;17.10;100.00
16525;BME280;8375;33.594;-117.718;2022-10-16T03:53:22;100157.63;;;17.13;100.00
16525;BME280;8375;33.594;-117.718;2022-10-16T03:55:51;100147.47;;;17.10;100.00
16525;BME280;8375;33.594;-117.718;2022-10-16T03:58:19;100137.78;;;17.11;100.00
16525;BME280;8375;33.594;-117.718;2022-10-16T04:00:48;100146.31;;;17.13;100.00
16525;BME280;8375;33.594;-117.718;2022-10-16T04:03:17;100166.31;;;17.14;100.00
16525;BME280;8375;33.594;-117.718;2022-10-16T04:05:45;100171.56;;;17.14;100.00
16525;BME280;8375;33.594;-117.718;2022-10-16T04:08:14;100163.03;;;17.12;100.00
16525;BME280;8375;33.594;-117.718;2022-10-16T04:10:44;100175.81;;;17.15;100.00
16525;BME280;8375;33.594;-117.718;2022-10-16T04:13:14;100190.09;;;17.12;100.00
16525;BME280;8375;33.594;-117.718;2022-10-16T04:15:44;100207.78;;;17.10;100.00
16525;BME280;8375;33.594;-117.718;2022-10-16T04:18:13;100206.63;;;17.13;100.00
16525;BME280;8375;33.594;-117.718;2022-10-16T04:20:42;100206.31;;;17.16;100.00
16525;BME280;8375;33.594;-117.718;2022-10-16T04:23:10;100200.75;;;17.19;100.00
16525;BME280;8375;33.594;-117.718;2022-10-16T04:25:39;100210.09;;;17.22;100.00
16525;BME280;8375;33.594;-117.718;2022-10-16T04:28:09;100204.34;;;17.18;100.00
16525;BME280;8375;33.594;-117.718;2022-10-16T04:30:38;100200.91;;;17.18;100.00
16525;BME280;8375;33.594;-117.718;2022-10-16T04:33:08;100185.84;;;17.20;100.00
16525;BME280;8375;33.594;-117.718;2022-10-16T04:35:37;100181.56;;;17.19;100.00
16525;BME280;8375;33.594;-117.718;2022-10-16T04:38:05;100182.56;;;17.18;100.00
16525;BME280;8375;33.594;-117.718;2022-10-16T04:40:34;100204.19;;;17.20;100.00
16525;BME280;8375;33.594;-117.718;2022-10-16T04:43:03;100245.97;;;17.13;100.00
16525;BME280;8375;33.594;-117.718;2022-10-16T04:45:33;100260.06;;;17.12;100.00
16525;BME280;8375;33.594;-117.718;2022-10-16T04:48:02;100274.66;;;17.06;100.00
16525;BME280;8375;33.594;-117.718;2022-10-16T04:50:31;100276.94;;;17.09;100.00
16525;BME280;8375;33.594;-117.718;2022-10-16T04:52:59;100307.75;;;17.07;100.00
16525;BME280;8375;33.594;-117.718;2022-10-16T04:55:28;100327.41;;;17.03;100.00
16525;BME280;8375;33.594;-117.718;2022-10-16T04:57:56;100332.78;;;17.01;100.00
16525;BME280;8375;33.594;-117.718;2022-10-16T05:00:26;100319.31;;;16.96;100.00
16525;BME280;8375;33.594;-117.718;2022-10-16T05:02:56;100277.53;;;16.95;100.00
16525;BME280;8375;33.594;-117.718;2022-10-16T05:05:26;100212.75;;;16.87;100.00
16525;BME280;8375;33.594;-117.718;2022-10-16T05:07:54;100161.63;;;16.83;100.00
16525;BME280;8375;33.594;-117.718;2022-10-16T05:10:23;100125.75;;;16.75;100.00
16525;BME280;8375;33.594;-117.718;2022-10-16T05:12:51;100075.44;;;16.71;100.00
16525;BME280;8375;33.594;-117.718;2022-10-16T05:15:20;100021.88;;;16.57;100.00
16525;BME280;8375;33.594;-117.718;2022-10-16T05:17:53;99985.84;;;16.43;100.00
16525;BME280;8375;33.594;-117.718;2022-10-16T05:20:23;99962.56;;;16.32;100.00
16525;BME280;8375;33.594;-117.718;2022-10-16T05:22:52;99938.47;;;16.28;100.00
16525;BME280;8375;33.594;-117.718;2022-10-16T05:25:20;100008.84;;;16.23;100.00
16525;BME280;8375;33.594;-117.718;2022-10-16T05:27:49;100052.91;;;16.27;100.00
16525;BME280;8375;33.594;-117.718;2022-10-16T05:30:18;100101.19;;;16.25;100.00
16525;BME280;8375;33.594;-117.718;2022-10-16T05:32:47;100158.34;;;16.03;100.00
16525;BME280;8375;33.594;-117.718;2022-10-16T05:35:17;100162.72;;;15.94;100.00
16525;BME280;8375;33.594;-117.718;2022-10-16T05:37:47;100158.78;;;15.90;100.00
16525;BME280;8375;33.594;-117.718;2022-10-16T05:40:16;100148.13;;;15.92;100.00
16525;BME280;8375;33.594;-117.718;2022-10-16T05:42:44;100128.38;;;15.97;100.00
16525;BME280;8375;33.594;-117.718;2022-10-16T05:45:13;100111.84;;;15.97;100.00
16525;BME280;8375;33.594;-117.718;2022-10-16T05:47:42;100112.69;;;15.97;100.00
16525;BME280;8375;33.594;-117.718;2022-10-16T05:50:10;100112.19;;;16.02;100.00
16525;BME280;8375;33.594;-117.718;2022-10-16T05:52:39;100119.69;;;15.97;100.00
16525;BME280;8375;33.594;-117.718;2022-10-16T05:55:09;100128.69;;;15.94;100.00
16525;BME280;8375;33.594;-117.718;2022-10-16T05:57:38;100151.13;;;15.97;100.00
16525;BME280;8375;33.594;-117.718;2022-10-16T06:00:07;100148.66;;;15.95;100.00
16525;BME280;8375;33.594;-117.718;2022-10-16T06:02:36;100144.75;;;16.00;100.00
16525;BME280;8375;33.594;-117.718;2022-10-16T06:05:05;100152.13;;;16.04;100.00
16525;BME280;8375;33.594;-117.718;2022-10-16T06:07:34;100153.78;;;16.05;100.00
16525;BME280;8375;33.594;-117.718;2022-10-16T06:10:04;100141.03;;;16.10;100.00
16525;BME280;8375;33.594;-117.718;2022-10-16T06:12:34;100139.09;;;16.12;100.00
16525;BME280;8375;33.594;-117.718;2022-10-16T06:15:03;100144.03;;;16.16;100.00
16525;BME280;8375;33.594;-117.718;2022-10-16T06:17:32;100158.91;;;16.15;100.00
16525;BME280;8375;33.594;-117.718;2022-10-16T06:20:00;100162.03;;;16.19;100.00
16525;BME280;8375;33.594;-117.718;2022-10-16T06:22:29;100162.69;;;16.21;100.00
16525;BME280;8375;33.594;-117.718;2022-10-16T06:24:58;100165.19;;;16.22;100.00
16525;BME280;8375;33.594;-117.718;2022-10-16T06:27:26;100159.09;;;16.22;100.00
16525;BME280;8375;33.594;-117.718;2022-10-16T06:29:57;100158.00;;;16.24;100.00
16525;BME280;8375;33.594;-117.718;2022-10-16T06:32:25;100160.28;;;16.27;100.00
16525;BME280;8375;33.594;-117.718;2022-10-16T06:34:55;100162.38;;;16.24;100.00
16525;BME280;8375;33.594;-117.718;2022-10-16T06:37:24;100160.59;;;16.24;100.00
16525;BME280;8375;33.594;-117.718;2022-10-16T06:39:52;100155.38;;;16.24;100.00
16525;BME280;8375;33.594;-117.718;2022-10-16T06:42:21;100153.56;;;16.25;100.00
16525;BME280;8375;33.594;-117.718;2022-10-16T06:44:50;100152.75;;;16.24;100.00
16525;BME280;8375;33.594;-117.718;2022-10-16T06:47:22;100161.28;;;16.26;100.00
16525;BME280;8375;33.594;-117.718;2022-10-16T06:49:50;100155.19;;;16.26;100.00
16525;BME280;8375;33.594;-117.718;2022-10-16T06:52:19;100151.91;;;16.24;100.00
16525;BME280;8375;33.594;-117.718;2022-10-16T06:54:47;100155.50;;;16.23;100.00
16525;BME280;8375;33.594;-117.718;2022-10-16T06:57:16;100173.69;;;16.24;100.00
16525;BME280;8375;33.594;-117.718;2022-10-16T06:59:45;100177.31;;;16.23;100.00
16525;BME280;8375;33.594;-117.718;2022-10-16T07:02:13;100182.00;;;16.20;100.00
16525;BME280;8375;33.594;-117.718;2022-10-16T07:04:44;100177.31;;;16.23;100.00
16525;BME280;8375;33.594;-117.718;2022-10-16T07:07:12;100167.81;;;16.22;100.00
16525;BME280;8375;33.594;-117.718;2022-10-16T07:09:41;100164.03;;;16.25;100.00
16525;BME280;8375;33.594;-117.718;2022-10-16T07:12:11;100159.31;;;16.28;100.00
16525;BME280;8375;33.594;-117.718;2022-10-16T07:14:39;100151.78;;;16.25;100.00
16525;BME280;8375;33.594;-117.718;2022-10-16T07:17:08;100148.97;;;16.27;100.00
16525;BME280;8375;33.594;-117.718;2022-10-16T07:19:37;100154.38;;;16.25;100.00
16525;BME280;8375;33.594;-117.718;2022-10-16T07:22:08;100156.69;;;16.28;100.00
16525;BME280;8375;33.594;-117.718;2022-10-16T07:24:37;100150.47;;;16.30;100.00
16525;BME280;8375;33.594;-117.718;2022-10-16T07:27:06;100152.13;;;16.31;100.00
16525;BME280;8375;33.594;-117.718;2022-10-16T07:29:34;100151.16;;;16.32;100.00
16525;BME280;8375;33.594;-117.718;2022-10-16T07:32:03;100154.44;;;16.34;100.00
16525;BME280;8375;33.594;-117.718;2022-10-16T07:34:32;100177.16;;;16.33;100.00
16525;BME280;8375;33.594;-117.718;2022-10-16T07:37:00;100191.41;;;16.31;100.00
16525;BME280;8375;33.594;-117.718;2022-10-16T07:39:30;100177.16;;;16.33;100.00
16525;BME280;8375;33.594;-117.718;2022-10-16T07:41:59;100195.38;;;16.35;100.00
16525;BME280;8375;33.594;-117.718;2022-10-16T07:44:28;100208.47;;;16.35;100.00
16525;BME280;8375;33.594;-117.718;2022-10-16T07:46:56;100200.13;;;16.39;100.00
16525;BME280;8375;33.594;-117.718;2022-10-16T07:49:25;100219.13;;;16.41;100.00
16525;BME280;8375;33.594;-117.718;2022-10-16T07:51:54;100228.63;;;16.42;100.00
16525;BME280;8375;33.594;-117.718;2022-10-16T07:54:22;100225.47;;;16.31;100.00
16525;BME280;8375;33.594;-117.718;2022-10-16T07:56:52;100221.88;;;16.32;100.00
16525;BME280;8375;33.594;-117.718;2022-10-16T07:59:21;100231.88;;;16.36;100.00
16525;BME280;8375;33.594;-117.718;2022-10-16T08:01:50;100245.50;;;16.40;100.00
16525;BME280;8375;33.594;-117.718;2022-10-16T08:04:18;100240.03;;;16.33;100.00
16525;BME280;8375;33.594;-117.718;2022-10-16T08:06:47;100235.41;;;16.27;100.00
16525;BME280;8375;33.594;-117.718;2022-10-16T08:09:16;100240.81;;;16.25;100.00
16525;BME280;8375;33.594;-117.718;2022-10-16T08:11:44;100251.00;;;16.28;100.00
16525;BME280;8375;33.594;-117.718;2022-10-16T08:14:14;100263.47;;;16.35;100.00
16525;BME280;8375;33.594;-117.718;2022-10-16T08:16:43;100270.28;;;16.27;100.00
16525;BME280;8375;33.594;-117.718;2022-10-16T08:19:11;100268.78;;;16.25;100.00
16525;BME280;8375;33.594;-117.718;2022-10-16T08:21:41;100277.72;;;16.14;100.00
16525;BME280;8375;33.594;-117.718;2022-10-16T08:24:10;100280.34;;;16.14;100.00
16525;BME280;8375;33.594;-117.718;2022-10-16T08:26:38;100277.72;;;16.14;100.00
16525;BME280;8375;33.594;-117.718;2022-10-16T08:29:08;100285.94;;;16.19;100.00
16525;BME280;8375;33.594;-117.718;2022-10-16T08:31:38;100273.22;;;16.24;100.00
16525;BME280;8375;33.594;-117.718;2022-10-16T08:34:06;100274.38;;;16.30;100.00
16525;BME280;8375;33.594;-117.718;2022-10-16T08:36:35;100271.63;;;16.32;100.00
16525;BME280;8375;33.594;-117.718;2022-10-16T08:39:04;100264.28;;;16.35;100.00
16525;BME280;8375;33.594;-117.718;2022-10-16T08:42:11;100245.63;;;16.38;100.00
16525;BME280;8375;33.594;-117.718;2022-10-16T08:45:21;100246.28;;;16.40;100.00
16525;BME280;8375;33.594;-117.718;2022-10-16T08:48:04;100260.06;;;16.42;100.00
16525;BME280;8375;33.594;-117.718;2022-10-16T08:50:39;100254.31;;;16.39;100.00
16525;BME280;8375;33.594;-117.718;2022-10-16T08:53:14;100240.06;;;16.41;100.00
16525;BME280;8375;33.594;-117.718;2022-10-16T08:55:46;100235.50;;;16.43;100.00
16525;BME280;8375;33.594;-117.718;2022-10-16T08:58:18;100226.16;;;16.41;100.00
16525;BME280;8375;33.594;-117.718;2022-10-16T09:00:48;100227.66;;;16.43;100.00
16525;BME280;8375;33.594;-117.718;2022-10-16T09:03:28;100227.66;;;16.43;100.00
16525;BME280;8375;33.594;-117.718;2022-10-16T09:06:26;100255.50;;;16.45;100.00
16525;BME280;8375;33.594;-117.718;2022-10-16T09:09:10;100252.50;;;16.39;100.00
16525;BME280;8375;33.594;-117.718;2022-10-16T09:11:46;100259.41;;;16.40;100.00
16525;BME280;8375;33.594;-117.718;2022-10-16T09:14:34;100253.66;;;16.37;100.00
16525;BME280;8375;33.594;-117.718;2022-10-16T09:17:18;100246.81;;;16.44;100.00
16525;BME280;8375;33.594;-117.718;2022-10-16T09:19:55;100246.50;;;16.47;100.00
16525;BME280;8375;33.594;-117.718;2022-10-16T09:22:28;100243.72;;;16.49;100.00
16525;BME280;8375;33.594;-117.718;2022-10-16T09:25:00;100240.28;;;16.48;100.00
16525;BME280;8375;33.594;-117.718;2022-10-16T09:27:33;100244.56;;;16.49;100.00
16525;BME280;8375;33.594;-117.718;2022-10-16T09:30:01;100237.69;;;16.48;100.00
16525;BME280;8375;33.594;-117.718;2022-10-16T09:32:35;100245.31;;;16.41;100.00
16525;BME280;8375;33.594;-117.718;2022-10-16T09:35:13;100244.19;;;16.44;100.00
16525;BME280;8375;33.594;-117.718;2022-10-16T09:37:45;100240.75;;;16.43;100.00
16525;BME280;8375;33.594;-117.718;2022-10-16T09:40:25;100250.41;;;16.43;100.00
16525;BME280;8375;33.594;-117.718;2022-10-16T09:43:00;100248.28;;;16.47;100.00
16525;BME280;8375;33.594;-117.718;2022-10-16T09:45:29;100248.78;;;16.42;100.00
16525;BME280;8375;33.594;-117.718;2022-10-16T09:48:00;100243.97;;;16.37;100.00
16525;BME280;8375;33.594;-117.718;2022-10-16T09:50:31;100240.56;;;16.37;100.00
16525;BME280;8375;33.594;-117.718;2022-10-16T09:53:05;100245.81;;;16.37;100.00
16525;BME280;8375;33.594;-117.718;2022-10-16T09:55:34;100237.31;;;16.43;100.00
16525;BME280;8375;33.594;-117.718;2022-10-16T09:58:02;100238.97;;;16.44;100.00
16525;BME280;8375;33.594;-117.718;2022-10-16T10:00:41;100229.16;;;16.46;100.00
16525;BME280;8375;33.594;-117.718;2022-10-16T10:03:30;100231.09;;;16.44;100.00
16525;BME280;8375;33.594;-117.718;2022-10-16T10:06:13;100232.88;;;16.43;100.00
16525;BME280;8375;33.594;-117.718;2022-10-16T10:08:54;100231.91;;;16.45;100.00
16525;BME280;8375;33.594;-117.718;2022-10-16T10:11:40;100230.13;;;16.45;100.00
16525;BME280;8375;33.594;-117.718;2022-10-16T10:14:20;100241.28;;;16.47;100.00
16525;BME280;8375;33.594;-117.718;2022-10-16T10:16:50;100244.56;;;16.49;100.00
16525;BME280;8375;33.594;-117.718;2022-10-16T10:19:20;100244.56;;;16.49;100.00
16525;BME280;8375;33.594;-117.718;2022-10-16T10:21:51;100238.34;;;16.50;100.00
16525;BME280;8375;33.594;-117.718;2022-10-16T10:24:20;100239.97;;;16.51;100.00
16525;BME280;8375;33.594;-117.718;2022-10-16T10:26:54;100243.41;;;16.52;100.00
16525;BME280;8375;33.594;-117.718;2022-10-16T10:29:34;100246.69;;;16.54;100.00
16525;BME280;8375;33.594;-117.718;2022-10-16T10:32:17;100249.63;;;16.51;100.00
16525;BME280;8375;33.594;-117.718;2022-10-16T10:35:11;100253.88;;;16.52;100.00
16525;BME280;8375;33.594;-117.718;2022-10-16T10:38:02;100246.88;;;16.52;100.00
16525;BME280;8375;33.594;-117.718;2022-10-16T10:40:46;100250.28;;;16.53;100.00
16525;BME280;8375;33.594;-117.718;2022-10-16T10:43:26;100242.59;;;16.51;100.00
16525;BME280;8375;33.594;-117.718;2022-10-16T10:46:02;100248.50;;;16.53;100.00
16525;BME280;8375;33.594;-117.718;2022-10-16T10:48:52;100254.56;;;16.54;100.00
16525;BME280;8375;33.594;-117.718;2022-10-16T10:51:28;100248.50;;;16.53;100.00
16525;BME280;8375;33.594;-117.718;2022-10-16T10:54:11;100253.56;;;16.55;100.00
16525;BME280;8375;33.594;-117.718;2022-10-16T10:56:46;100244.25;;;16.52;100.00
16525;BME280;8375;33.594;-117.718;2022-10-16T10:59:55;100242.28;;;16.54;100.00
16525;BME280;8375;33.594;-117.718;2022-10-16T11:02:33;100242.97;;;16.56;100.00
16525;BME280;8375;33.594;-117.718;2022-10-16T11:05:33;100249.97;;;16.56;100.00
16525;BME280;8375;33.594;-117.718;2022-10-16T11:08:09;100252.47;;;16.57;100.00
16525;BME280;8375;33.594;-117.718;2022-10-16T11:10:48;100248.19;;;16.56;100.00
16525;BME280;8375;33.594;-117.718;2022-10-16T11:13:28;100250.16;;;16.54;100.00
16525;BME280;8375;33.594;-117.718;2022-10-16T11:16:00;100254.41;;;16.55;100.00
16525;BME280;8375;33.594;-117.718;2022-10-16T11:18:38;100255.22;;;16.56;100.00
16525;BME280;8375;33.594;-117.718;2022-10-16T11:21:11;100254.09;;;16.59;100.00
16525;BME280;8375;33.594;-117.718;2022-10-16T11:23:44;100261.13;;;16.58;100.00
16525;BME280;8375;33.594;-117.718;2022-10-16T11:26:21;100264.72;;;16.57;100.00
16525;BME280;8375;33.594;-117.718;2022-10-16T11:28:52;100266.38;;;16.58;100.00
16525;BME280;8375;33.594;-117.718;2022-10-16T11:31:28;100270.81;;;16.57;100.00
16525;BME280;8375;33.594;-117.718;2022-10-16T11:34:02;100274.91;;;16.60;100.00
16525;BME280;8375;33.594;-117.718;2022-10-16T11:36:38;100280.13;;;16.60;100.00
16525;BME280;8375;33.594;-117.718;2022-10-16T11:39:16;100283.59;;;16.61;100.00
16525;BME280;8375;33.594;-117.718;2022-10-16T11:41:50;100291.28;;;16.62;100.00
16525;BME280;8375;33.594;-117.718;2022-10-16T11:44:33;100302.91;;;16.60;100.00
16525;BME280;8375;33.594;-117.718;2022-10-16T11:47:11;100297.38;;;16.63;100.00
16525;BME280;8375;33.594;-117.718;2022-10-16T11:49:42;100298.34;;;16.62;100.00
16525;BME280;8375;33.594;-117.718;2022-10-16T11:52:16;100298.16;;;16.63;100.00
16525;BME280;8375;33.594;-117.718;2022-10-16T11:54:52;100295.25;;;16.66;100.00
16525;BME280;8375;33.594;-117.718;2022-10-16T11:57:27;100302.28;;;16.66;100.00
16525;BME280;8375;33.594;-117.718;2022-10-16T11:59:59;100299.00;;;16.64;100.00
16525;BME280;8375;33.594;-117.718;2022-10-16T12:02:40;100292.94;;;16.63;100.00
16525;BME280;8375;33.594;-117.718;2022-10-16T12:05:22;100298.34;;;16.62;100.00
16525;BME280;8375;33.594;-117.718;2022-10-16T12:07:59;100300.78;;;16.63;100.00
16525;BME280;8375;33.594;-117.718;2022-10-16T12:10:30;100293.59;;;16.65;100.00
16525;BME280;8375;33.594;-117.718;2022-10-16T12:13:05;100297.84;;;16.66;100.00
16525;BME280;8375;33.594;-117.718;2022-10-16T12:16:04;100299.66;;;16.66;100.00
16525;BME280;8375;33.594;-117.718;2022-10-16T12:18:33;100302.44;;;16.64;100.00
16525;BME280;8375;33.594;-117.718;2022-10-16T12:21:03;100307.84;;;16.63;100.00
16525;BME280;8375;33.594;-117.718;2022-10-16T12:23:36;100311.13;;;16.65;100.00
16525;BME280;8375;33.594;-117.718;2022-10-16T12:26:05;100309.31;;;16.65;100.00
16525;BME280;8375;33.594;-117.718;2022-10-16T12:28:36;100307.53;;;16.66;100.00
16525;BME280;8375;33.594;-117.718;2022-10-16T12:31:07;100304.59;;;16.69;100.00
16525;BME280;8375;33.594;-117.718;2022-10-16T12:33:37;100312.78;;;16.66;100.00
16525;BME280;8375;33.594;-117.718;2022-10-16T12:36:12;100309.97;;;16.67;100.00
16525;BME280;8375;33.594;-117.718;2022-10-16T12:38:48;100309.69;;;16.70;100.00
16525;BME280;8375;33.594;-117.718;2022-10-16T12:41:25;100306.25;;;16.70;100.00
16525;BME280;8375;33.594;-117.718;2022-10-16T12:43:56;100297.72;;;16.68;100.00
16525;BME280;8375;33.594;-117.718;2022-10-16T12:46:38;100303.63;;;16.70;100.00
16525;BME280;8375;33.594;-117.718;2022-10-16T12:49:23;100300.03;;;16.71;100.00